TimePDT,TemperatureF,Dew PointF,Humidity,Sea Level PressureIn,VisibilityMPH,Wind Direction,Wind SpeedMPH,Gust SpeedMPH,PrecipitationIn,Events,Conditions,WindDirDegrees,DateUTC
12:53 AM,35.1,32.0,89,29.72,10.0,Calm,Calm,-,N/A,,Clear,0,2012-10-23 07:53:00
1:53 AM,32.0,30.0,92,29.72,10.0,Calm,Calm,-,N/A,,Clear,0,2012-10-23 08:53:00
2:53 AM,33.1,30.9,92,29.73,10.0,Calm,Calm,-,N/A,,Overcast,0,2012-10-23 09:53:00
3:53 AM,34.0,32.0,92,29.74,10.0,Calm,Calm,-,N/A,,Mostly Cloudy,0,2012-10-23 10:53:00
4:53 AM,35.1,32.0,89,29.76,10.0,SSE,4.6,-,N/A,,Overcast,160,2012-10-23 11:53:00
5:53 AM,36.0,34.0,93,29.78,10.0,Calm,Calm,-,N/A,,Overcast,0,2012-10-23 12:53:00
6:53 AM,36.0,34.0,93,29.80,10.0,South,4.6,-,N/A,,Overcast,190,2012-10-23 13:53:00
7:53 AM,36.0,34.0,93,29.82,10.0,South,4.6,-,N/A,,Mostly Cloudy,190,2012-10-23 14:53:00
8:53 AM,37.9,35.1,89,29.84,10.0,South,4.6,-,N/A,,Partly Cloudy,180,2012-10-23 15:53:00
10:53 AM,46.0,37.9,73,29.86,10.0,Calm,Calm,-,N/A,,Clear,0,2012-10-23 17:53:00
11:53 AM,50.0,37.9,63,29.86,10.0,Variable,3.5,-,N/A,,Partly Cloudy,0,2012-10-23 18:53:00
1:53 PM,55.0,35.1,47,29.87,10.0,West,10.4,-,N/A,,Clear,270,2012-10-23 20:53:00
2:53 PM,55.0,35.1,47,29.87,10.0,West,10.4,-,N/A,,Clear,270,2012-10-23 21:53:00
3:53 PM,55.0,33.1,43,29.88,10.0,Variable,3.5,-,N/A,,Scattered Clouds,0,2012-10-23 22:53:00
4:53 PM,54.0,32.0,43,29.89,10.0,Calm,Calm,-,N/A,,Overcast,0,2012-10-23 23:53:00
5:53 PM,48.0,37.0,66,29.91,10.0,SE,6.9,-,N/A,,Overcast,130,2012-10-24 00:53:00
6:53 PM,44.1,37.0,76,29.92,10.0,SE,8.1,-,N/A,,Clear,130,2012-10-24 01:53:00
7:53 PM,45.0,36.0,71,29.93,10.0,South,6.9,-,N/A,,Overcast,180,2012-10-24 02:53:00
8:53 PM,42.1,35.1,76,29.93,10.0,SE,6.9,-,N/A,,Clear,140,2012-10-24 03:53:00
9:53 PM,39.9,34.0,79,29.93,10.0,SE,5.8,-,N/A,,Clear,130,2012-10-24 04:53:00
11:53 PM,35.1,32.0,89,29.92,10.0,East,5.8,-,N/A,,Clear,80,2012-10-24 06:53:00